sensor_id;sensor_type;location;lat;lon;timestamp;P1;durP1;ratioP1;P2;durP2;ratioP2
35961;SDS011;22044;48.298;10.008;2022-11-30T00:00:29;26.97;;;17.77;;
35961;SDS011;22044;48.298;10.008;2022-11-30T00:03:15;25.20;;;17.23;;
35961;SDS011;22044;48.298;10.008;2022-11-30T00:06:02;21.63;;;15.87;;
35961;SDS011;22044;48.298;10.008;2022-11-30T00:08:50;26.20;;;17.00;;
35961;SDS011;22044;48.298;10.008;2022-11-30T00:11:37;26.53;;;17.53;;
35961;SDS011;22044;48.298;10.008;2022-11-30T00:14:22;22.97;;;16.23;;
35961;SDS011;22044;48.298;10.008;2022-11-30T00:17:08;27.43;;;17.77;;
35961;SDS011;22044;48.298;10.008;2022-11-30T00:19:53;26.90;;;17.73;;
35961;SDS011;22044;48.298;10.008;2022-11-30T00:22:39;27.33;;;17.37;;
35961;SDS011;22044;48.298;10.008;2022-11-30T00:25:26;29.10;;;19.03;;
35961;SDS011;22044;48.298;10.008;2022-11-30T00:28:11;30.20;;;18.17;;
35961;SDS011;22044;48.298;10.008;2022-11-30T00:30:57;27.23;;;17.90;;
35961;SDS011;22044;48.298;10.008;2022-11-30T00:33:43;25.77;;;16.63;;
35961;SDS011;22044;48.298;10.008;2022-11-30T00:36:29;28.73;;;17.37;;
35961;SDS011;22044;48.298;10.008;2022-11-30T00:39:15;32.90;;;20.07;;
35961;SDS011;22044;48.298;10.008;2022-11-30T00:42:02;30.37;;;18.30;;
35961;SDS011;22044;48.298;10.008;2022-11-30T00:44:48;31.03;;;18.73;;
35961;SDS011;22044;48.298;10.008;2022-11-30T00:47:33;31.40;;;18.77;;
35961;SDS011;22044;48.298;10.008;2022-11-30T00:50:19;30.10;;;19.43;;
35961;SDS011;22044;48.298;10.008;2022-11-30T00:53:04;29.33;;;18.60;;
35961;SDS011;22044;48.298;10.008;2022-11-30T00:55:50;33.60;;;20.37;;
35961;SDS011;22044;48.298;10.008;2022-11-30T00:58:36;32.83;;;20.47;;
35961;SDS011;22044;48.298;10.008;2022-11-30T01:01:23;32.43;;;21.03;;
35961;SDS011;22044;48.298;10.008;2022-11-30T01:04:08;31.90;;;20.63;;
35961;SDS011;22044;48.298;10.008;2022-11-30T01:06:54;30.93;;;19.73;;
35961;SDS011;22044;48.298;10.008;2022-11-30T01:09:39;35.17;;;21.80;;
35961;SDS011;22044;48.298;10.008;2022-11-30T01:12:25;37.37;;;22.73;;
35961;SDS011;22044;48.298;10.008;2022-11-30T01:15:12;37.57;;;22.17;;
35961;SDS011;22044;48.298;10.008;2022-11-30T01:17:58;36.20;;;22.57;;
35961;SDS011;22044;48.298;10.008;2022-11-30T01:20:43;35.60;;;22.03;;
35961;SDS011;22044;48.298;10.008;2022-11-30T01:23:30;34.50;;;21.77;;
35961;SDS011;22044;48.298;10.008;2022-11-30T01:26:16;38.70;;;23.87;;
35961;SDS011;22044;48.298;10.008;2022-11-30T01:29:02;41.50;;;24.57;;
35961;SDS011;22044;48.298;10.008;2022-11-30T01:31:49;37.20;;;23.27;;
35961;SDS011;22044;48.298;10.008;2022-11-30T01:34:35;42.77;;;25.87;;
35961;SDS011;22044;48.298;10.008;2022-11-30T01:37:20;41.23;;;24.70;;
35961;SDS011;22044;48.298;10.008;2022-11-30T01:40:07;38.97;;;24.07;;
35961;SDS011;22044;48.298;10.008;2022-11-30T01:42:54;42.83;;;24.63;;
35961;SDS011;22044;48.298;10.008;2022-11-30T01:45:40;40.23;;;25.10;;
35961;SDS011;22044;48.298;10.008;2022-11-30T01:48:27;45.10;;;24.33;;
35961;SDS011;22044;48.298;10.008;2022-11-30T01:51:13;38.60;;;23.93;;
35961;SDS011;22044;48.298;10.008;2022-11-30T01:53:59;37.13;;;23.57;;
35961;SDS011;22044;48.298;10.008;2022-11-30T01:56:47;38.57;;;23.60;;
35961;SDS011;22044;48.298;10.008;2022-11-30T01:59:36;39.57;;;24.87;;
35961;SDS011;22044;48.298;10.008;2022-11-30T02:02:23;39.40;;;25.50;;
35961;SDS011;22044;48.298;10.008;2022-11-30T02:05:16;42.17;;;25.97;;
35961;SDS011;22044;48.298;10.008;2022-11-30T02:08:04;41.33;;;25.80;;
35961;SDS011;22044;48.298;10.008;2022-11-30T02:10:51;42.57;;;25.87;;
35961;SDS011;22044;48.298;10.008;2022-11-30T02:13:48;38.47;;;24.03;;
35961;SDS011;22044;48.298;10.008;2022-11-30T02:16:46;40.27;;;25.80;;
35961;SDS011;22044;48.298;10.008;2022-11-30T02:23:27;39.73;;;24.97;;
35961;SDS011;22044;48.298;10.008;2022-11-30T02:26:29;44.83;;;25.30;;
35961;SDS011;22044;48.298;10.008;2022-11-30T02:29:24;42.30;;;26.17;;
35961;SDS011;22044;48.298;10.008;2022-11-30T02:32:14;43.67;;;25.73;;
35961;SDS011;22044;48.298;10.008;2022-11-30T02:35:05;42.30;;;25.63;;
35961;SDS011;22044;48.298;10.008;2022-11-30T02:37:53;40.83;;;25.37;;
35961;SDS011;22044;48.298;10.008;2022-11-30T02:40:41;38.43;;;24.93;;
35961;SDS011;22044;48.298;10.008;2022-11-30T02:43:27;38.33;;;24.00;;
35961;SDS011;22044;48.298;10.008;2022-11-30T02:46:17;36.63;;;23.70;;
35961;SDS011;22044;48.298;10.008;2022-11-30T02:49:08;37.33;;;23.73;;
35961;SDS011;22044;48.298;10.008;2022-11-30T02:51:59;42.53;;;25.70;;
35961;SDS011;22044;48.298;10.008;2022-11-30T02:54:46;47.83;;;25.03;;
35961;SDS011;22044;48.298;10.008;2022-11-30T02:57:32;39.07;;;25.27;;
35961;SDS011;22044;48.298;10.008;2022-11-30T03:00:18;41.40;;;25.53;;
35961;SDS011;22044;48.298;10.008;2022-11-30T03:03:05;41.75;;;31.65;;
35961;SDS011;22044;48.298;10.008;2022-11-30T03:05:51;37.90;;;25.60;;
35961;SDS011;22044;48.298;10.008;2022-11-30T03:08:37;37.30;;;24.07;;
35961;SDS011;22044;48.298;10.008;2022-11-30T03:11:22;34.60;;;23.33;;
35961;SDS011;22044;48.298;10.008;2022-11-30T03:14:08;37.63;;;23.90;;
35961;SDS011;22044;48.298;10.008;2022-11-30T03:16:54;39.03;;;24.00;;
35961;SDS011;22044;48.298;10.008;2022-11-30T03:19:41;36.10;;;23.43;;
35961;SDS011;22044;48.298;10.008;2022-11-30T03:22:27;36.17;;;22.77;;
35961;SDS011;22044;48.298;10.008;2022-11-30T03:25:12;34.70;;;23.10;;
35961;SDS011;22044;48.298;10.008;2022-11-30T03:27:58;34.87;;;22.30;;
35961;SDS011;22044;48.298;10.008;2022-11-30T03:30:47;39.13;;;24.40;;
35961;SDS011;22044;48.298;10.008;2022-11-30T03:33:32;34.60;;;21.73;;
35961;SDS011;22044;48.298;10.008;2022-11-30T03:36:20;38.87;;;24.07;;
35961;SDS011;22044;48.298;10.008;2022-11-30T03:39:05;39.53;;;24.53;;
35961;SDS011;22044;48.298;10.008;2022-11-30T03:41:52;33.80;;;21.67;;
35961;SDS011;22044;48.298;10.008;2022-11-30T03:44:38;36.37;;;23.40;;
35961;SDS011;22044;48.298;10.008;2022-11-30T03:47:23;34.07;;;23.03;;
35961;SDS011;22044;48.298;10.008;2022-11-30T03:50:09;35.03;;;23.23;;
35961;SDS011;22044;48.298;10.008;2022-11-30T03:52:56;36.30;;;24.27;;
35961;SDS011;22044;48.298;10.008;2022-11-30T03:55:42;35.70;;;23.87;;
35961;SDS011;22044;48.298;10.008;2022-11-30T03:58:28;37.33;;;23.93;;
35961;SDS011;22044;48.298;10.008;2022-11-30T04:01:15;39.03;;;24.20;;
35961;SDS011;22044;48.298;10.008;2022-11-30T04:04:04;37.20;;;22.73;;
35961;SDS011;22044;48.298;10.008;2022-11-30T04:06:50;35.47;;;23.40;;
35961;SDS011;22044;48.298;10.008;2022-11-30T04:09:37;35.60;;;23.97;;
35961;SDS011;22044;48.298;10.008;2022-11-30T04:12:23;38.17;;;23.60;;
35961;SDS011;22044;48.298;10.008;2022-11-30T04:15:09;38.97;;;24.03;;
35961;SDS011;22044;48.298;10.008;2022-11-30T04:17:54;39.00;;;25.73;;
35961;SDS011;22044;48.298;10.008;2022-11-30T04:20:40;36.67;;;22.87;;
35961;SDS011;22044;48.298;10.008;2022-11-30T04:23:28;35.67;;;22.70;;
35961;SDS011;22044;48.298;10.008;2022-11-30T04:26:16;38.13;;;24.13;;
35961;SDS011;22044;48.298;10.008;2022-11-30T04:29:02;40.10;;;23.20;;
35961;SDS011;22044;48.298;10.008;2022-11-30T04:31:47;37.43;;;23.50;;
35961;SDS011;22044;48.298;10.008;2022-11-30T04:34:33;38.27;;;23.97;;
35961;SDS011;22044;48.298;10.008;2022-11-30T04:37:18;39.50;;;24.23;;
35961;SDS011;22044;48.298;10.008;2022-11-30T04:40:05;36.07;;;23.37;;
35961;SDS011;22044;48.298;10.008;2022-11-30T04:42:52;37.90;;;24.70;;
35961;SDS011;22044;48.298;10.008;2022-11-30T04:45:38;38.47;;;24.63;;
35961;SDS011;22044;48.298;10.008;2022-11-30T04:48:24;38.33;;;25.13;;
35961;SDS011;22044;48.298;10.008;2022-11-30T04:51:09;36.73;;;23.83;;
35961;SDS011;22044;48.298;10.008;2022-11-30T04:53:55;42.87;;;26.87;;
35961;SDS011;22044;48.298;10.008;2022-11-30T04:56:40;40.60;;;25.50;;
35961;SDS011;22044;48.298;10.008;2022-11-30T04:59:27;45.73;;;28.70;;
35961;SDS011;22044;48.298;10.008;2022-11-30T05:02:13;47.07;;;28.67;;
35961;SDS011;22044;48.298;10.008;2022-11-30T05:04:58;48.73;;;28.53;;
35961;SDS011;22044;48.298;10.008;2022-11-30T05:07:47;46.73;;;28.83;;
35961;SDS011;22044;48.298;10.008;2022-11-30T05:10:33;46.43;;;28.67;;
35961;SDS011;22044;48.298;10.008;2022-11-30T05:13:19;50.87;;;30.60;;
35961;SDS011;22044;48.298;10.008;2022-11-30T05:16:06;56.70;;;31.27;;
35961;SDS011;22044;48.298;10.008;2022-11-30T05:18:53;55.07;;;32.90;;
35961;SDS011;22044;48.298;10.008;2022-11-30T05:21:38;59.77;;;32.83;;
35961;SDS011;22044;48.298;10.008;2022-11-30T05:24:24;56.90;;;32.50;;
35961;SDS011;22044;48.298;10.008;2022-11-30T05:27:09;54.13;;;32.80;;
35961;SDS011;22044;48.298;10.008;2022-11-30T05:29:55;59.20;;;33.27;;
35961;SDS011;22044;48.298;10.008;2022-11-30T05:32:42;63.40;;;34.57;;
35961;SDS011;22044;48.298;10.008;2022-11-30T05:35:27;60.07;;;33.67;;
35961;SDS011;22044;48.298;10.008;2022-11-30T05:38:13;58.10;;;33.33;;
35961;SDS011;22044;48.298;10.008;2022-11-30T05:40:59;53.73;;;30.70;;
35961;SDS011;22044;48.298;10.008;2022-11-30T05:43:45;52.67;;;30.87;;
35961;SDS011;22044;48.298;10.008;2022-11-30T05:46:30;50.47;;;29.90;;
35961;SDS011;22044;48.298;10.008;2022-11-30T05:49:17;47.20;;;29.10;;
35961;SDS011;22044;48.298;10.008;2022-11-30T05:52:03;49.47;;;29.17;;
35961;SDS011;22044;48.298;10.008;2022-11-30T05:54:49;47.13;;;28.57;;
35961;SDS011;22044;48.298;10.008;2022-11-30T05:57:35;49.57;;;28.70;;
35961;SDS011;22044;48.298;10.008;2022-11-30T06:00:21;49.97;;;27.50;;
35961;SDS011;22044;48.298;10.008;2022-11-30T06:03:06;42.47;;;25.93;;
35961;SDS011;22044;48.298;10.008;2022-11-30T06:05:53;50.70;;;35.30;;
35961;SDS011;22044;48.298;10.008;2022-11-30T06:08:39;43.00;;;27.87;;
35961;SDS011;22044;48.298;10.008;2022-11-30T06:11:24;49.77;;;27.93;;
35961;SDS011;22044;48.298;10.008;2022-11-30T06:14:10;45.37;;;27.43;;
35961;SDS011;22044;48.298;10.008;2022-11-30T06:16:56;47.27;;;27.70;;
35961;SDS011;22044;48.298;10.008;2022-11-30T06:19:41;53.00;;;31.97;;
35961;SDS011;22044;48.298;10.008;2022-11-30T06:22:28;51.13;;;30.17;;
35961;SDS011;22044;48.298;10.008;2022-11-30T06:25:14;56.93;;;32.13;;
35961;SDS011;22044;48.298;10.008;2022-11-30T06:28:00;53.60;;;31.67;;
35961;SDS011;22044;48.298;10.008;2022-11-30T06:30:45;54.47;;;31.17;;
35961;SDS011;22044;48.298;10.008;2022-11-30T06:33:31;50.77;;;31.00;;
35961;SDS011;22044;48.298;10.008;2022-11-30T06:36:20;56.33;;;30.87;;
35961;SDS011;22044;48.298;10.008;2022-11-30T06:39:08;49.53;;;29.70;;
35961;SDS011;22044;48.298;10.008;2022-11-30T06:41:54;53.10;;;29.87;;
35961;SDS011;22044;48.298;10.008;2022-11-30T06:44:40;47.07;;;29.00;;
35961;SDS011;22044;48.298;10.008;2022-11-30T06:47:26;48.87;;;28.33;;
35961;SDS011;22044;48.298;10.008;2022-11-30T06:50:12;52.33;;;28.77;;
35961;SDS011;22044;48.298;10.008;2022-11-30T06:52:58;49.27;;;28.57;;
35961;SDS011;22044;48.298;10.008;2022-11-30T06:55:44;54.10;;;29.20;;
35961;SDS011;22044;48.298;10.008;2022-11-30T06:58:30;50.83;;;29.60;;
35961;SDS011;22044;48.298;10.008;2022-11-30T07:01:16;54.67;;;28.87;;
35961;SDS011;22044;48.298;10.008;2022-11-30T07:04:01;49.37;;;28.70;;
35961;SDS011;22044;48.298;10.008;2022-11-30T07:06:47;46.23;;;26.50;;
35961;SDS011;22044;48.298;10.008;2022-11-30T07:09:33;52.13;;;27.27;;
35961;SDS011;22044;48.298;10.008;2022-11-30T07:12:20;50.10;;;28.10;;
35961;SDS011;22044;48.298;10.008;2022-11-30T07:15:06;53.77;;;28.07;;
35961;SDS011;22044;48.298;10.008;2022-11-30T07:17:52;53.10;;;29.13;;
35961;SDS011;22044;48.298;10.008;2022-11-30T07:20:38;59.37;;;29.17;;
35961;SDS011;22044;48.298;10.008;2022-11-30T07:23:23;60.43;;;31.07;;
35961;SDS011;22044;48.298;10.008;2022-11-30T07:26:26;52.33;;;28.73;;
35961;SDS011;22044;48.298;10.008;2022-11-30T07:29:14;58.03;;;30.80;;
35961;SDS011;22044;48.298;10.008;2022-11-30T07:31:59;60.47;;;30.50;;
35961;SDS011;22044;48.298;10.008;2022-11-30T07:34:45;59.67;;;30.27;;
35961;SDS011;22044;48.298;10.008;2022-11-30T07:37:31;62.67;;;31.50;;
35961;SDS011;22044;48.298;10.008;2022-11-30T07:40:16;67.07;;;31.33;;
35961;SDS011;22044;48.298;10.008;2022-11-30T07:43:02;73.23;;;32.67;;
35961;SDS011;22044;48.298;10.008;2022-11-30T07:45:52;67.53;;;31.60;;
35961;SDS011;22044;48.298;10.008;2022-11-30T07:48:38;69.50;;;32.00;;
35961;SDS011;22044;48.298;10.008;2022-11-30T07:51:24;73.13;;;32.03;;
35961;SDS011;22044;48.298;10.008;2022-11-30T07:54:09;67.17;;;31.47;;
35961;SDS011;22044;48.298;10.008;2022-11-30T07:56:55;69.63;;;32.83;;
35961;SDS011;22044;48.298;10.008;2022-11-30T07:59:40;62.83;;;30.43;;
35961;SDS011;22044;48.298;10.008;2022-11-30T08:02:27;66.87;;;31.00;;
35961;SDS011;22044;48.298;10.008;2022-11-30T08:05:13;63.50;;;30.70;;
35961;SDS011;22044;48.298;10.008;2022-11-30T08:07:59;60.10;;;29.70;;
35961;SDS011;22044;48.298;10.008;2022-11-30T08:10:44;60.60;;;30.50;;
35961;SDS011;22044;48.298;10.008;2022-11-30T08:13:30;62.27;;;30.53;;
35961;SDS011;22044;48.298;10.008;2022-11-30T08:16:17;64.80;;;31.73;;
35961;SDS011;22044;48.298;10.008;2022-11-30T08:19:06;61.83;;;29.83;;
35961;SDS011;22044;48.298;10.008;2022-11-30T08:21:52;62.70;;;28.90;;
35961;SDS011;22044;48.298;10.008;2022-11-30T08:24:37;60.07;;;29.93;;
35961;SDS011;22044;48.298;10.008;2022-11-30T08:27:23;61.47;;;28.33;;
35961;SDS011;22044;48.298;10.008;2022-11-30T08:30:09;62.73;;;29.20;;
35961;SDS011;22044;48.298;10.008;2022-11-30T08:32:55;68.77;;;31.83;;
35961;SDS011;22044;48.298;10.008;2022-11-30T08:35:42;62.60;;;31.77;;
35961;SDS011;22044;48.298;10.008;2022-11-30T08:38:27;61.70;;;30.57;;
35961;SDS011;22044;48.298;10.008;2022-11-30T08:41:14;54.83;;;27.40;;
35961;SDS011;22044;48.298;10.008;2022-11-30T08:44:01;57.97;;;28.77;;
35961;SDS011;22044;48.298;10.008;2022-11-30T08:46:47;55.67;;;28.30;;
35961;SDS011;22044;48.298;10.008;2022-11-30T08:49:33;55.07;;;28.30;;
35961;SDS011;22044;48.298;10.008;2022-11-30T08:52:20;53.57;;;27.10;;
35961;SDS011;22044;48.298;10.008;2022-11-30T08:55:07;55.20;;;28.27;;
35961;SDS011;22044;48.298;10.008;2022-11-30T08:57:53;48.70;;;25.30;;
35961;SDS011;22044;48.298;10.008;2022-11-30T09:00:38;48.53;;;25.53;;
35961;SDS011;22044;48.298;10.008;2022-11-30T09:03:24;51.30;;;25.53;;
35961;SDS011;22044;48.298;10.008;2022-11-30T09:06:10;43.43;;;22.83;;
35961;SDS011;22044;48.298;10.008;2022-11-30T09:08:58;45.43;;;23.27;;
35961;SDS011;22044;48.298;10.008;2022-11-30T09:11:45;45.77;;;22.83;;
35961;SDS011;22044;48.298;10.008;2022-11-30T09:14:31;45.37;;;24.33;;
35961;SDS011;22044;48.298;10.008;2022-11-30T09:17:17;41.70;;;21.73;;
35961;SDS011;22044;48.298;10.008;2022-11-30T09:20:03;45.73;;;23.23;;
35961;SDS011;22044;48.298;10.008;2022-11-30T09:22:51;43.23;;;22.97;;
35961;SDS011;22044;48.298;10.008;2022-11-30T09:25:39;44.00;;;21.83;;
35961;SDS011;22044;48.298;10.008;2022-11-30T09:28:24;38.70;;;21.37;;
35961;SDS011;22044;48.298;10.008;2022-11-30T09:31:12;36.07;;;19.83;;
35961;SDS011;22044;48.298;10.008;2022-11-30T09:33:59;42.60;;;22.60;;
35961;SDS011;22044;48.298;10.008;2022-11-30T09:36:44;41.57;;;22.23;;
35961;SDS011;22044;48.298;10.008;2022-11-30T09:39:30;41.50;;;21.63;;
35961;SDS011;22044;48.298;10.008;2022-11-30T09:42:27;42.77;;;22.13;;
35961;SDS011;22044;48.298;10.008;2022-11-30T09:45:37;42.43;;;22.37;;
35961;SDS011;22044;48.298;10.008;2022-11-30T09:48:28;41.60;;;21.37;;
35961;SDS011;22044;48.298;10.008;2022-11-30T09:51:25;40.23;;;21.80;;
35961;SDS011;22044;48.298;10.008;2022-11-30T09:54:16;42.60;;;22.63;;
35961;SDS011;22044;48.298;10.008;2022-11-30T09:57:11;38.83;;;21.07;;
35961;SDS011;22044;48.298;10.008;2022-11-30T10:00:09;36.00;;;19.60;;
35961;SDS011;22044;48.298;10.008;2022-11-30T10:02:58;40.57;;;21.80;;
35961;SDS011;22044;48.298;10.008;2022-11-30T10:05:48;39.93;;;20.70;;
35961;SDS011;22044;48.298;10.008;2022-11-30T10:08:42;36.50;;;21.47;;
35961;SDS011;22044;48.298;10.008;2022-11-30T10:11:40;35.07;;;21.27;;
35961;SDS011;22044;48.298;10.008;2022-11-30T10:14:39;31.30;;;18.93;;
35961;SDS011;22044;48.298;10.008;2022-11-30T10:17:40;34.60;;;19.00;;
35961;SDS011;22044;48.298;10.008;2022-11-30T10:20:34;35.20;;;19.53;;
35961;SDS011;22044;48.298;10.008;2022-11-30T10:23:40;32.27;;;19.03;;
35961;SDS011;22044;48.298;10.008;2022-11-30T10:26:35;34.97;;;19.60;;
35961;SDS011;22044;48.298;10.008;2022-11-30T10:29:25;29.20;;;18.37;;
35961;SDS011;22044;48.298;10.008;2022-11-30T10:32:16;34.37;;;18.37;;
35961;SDS011;22044;48.298;10.008;2022-11-30T10:35:12;27.90;;;16.97;;
35961;SDS011;22044;48.298;10.008;2022-11-30T10:38:04;27.23;;;16.03;;
35961;SDS011;22044;48.298;10.008;2022-11-30T10:40:58;23.27;;;14.37;;
35961;SDS011;22044;48.298;10.008;2022-11-30T10:43:50;26.60;;;14.33;;
35961;SDS011;22044;48.298;10.008;2022-11-30T10:46:42;20.90;;;13.40;;
35961;SDS011;22044;48.298;10.008;2022-11-30T10:49:34;21.43;;;12.67;;
35961;SDS011;22044;48.298;10.008;2022-11-30T10:52:24;20.90;;;12.50;;
35961;SDS011;22044;48.298;10.008;2022-11-30T10:55:13;28.57;;;14.70;;
35961;SDS011;22044;48.298;10.008;2022-11-30T10:58:03;22.60;;;14.47;;
35961;SDS011;22044;48.298;10.008;2022-11-30T11:00:57;23.93;;;14.43;;
35961;SDS011;22044;48.298;10.008;2022-11-30T11:03:46;25.97;;;15.40;;
35961;SDS011;22044;48.298;10.008;2022-11-30T11:06:32;26.20;;;15.53;;
35961;SDS011;22044;48.298;10.008;2022-11-30T11:09:23;26.60;;;15.63;;
35961;SDS011;22044;48.298;10.008;2022-11-30T11:12:17;22.30;;;13.20;;
35961;SDS011;22044;48.298;10.008;2022-11-30T11:15:06;24.13;;;14.60;;
35961;SDS011;22044;48.298;10.008;2022-11-30T11:21:07;20.57;;;14.07;;
35961;SDS011;22044;48.298;10.008;2022-11-30T11:24:07;22.23;;;13.67;;
35961;SDS011;22044;48.298;10.008;2022-11-30T11:26:55;25.60;;;15.20;;
35961;SDS011;22044;48.298;10.008;2022-11-30T11:29:41;21.37;;;13.60;;
35961;SDS011;22044;48.298;10.008;2022-11-30T11:32:27;20.43;;;12.33;;
35961;SDS011;22044;48.298;10.008;2022-11-30T11:38:23;22.43;;;14.30;;
35961;SDS011;22044;48.298;10.008;2022-11-30T11:41:12;21.97;;;13.80;;
35961;SDS011;22044;48.298;10.008;2022-11-30T11:44:16;23.20;;;13.93;;
35961;SDS011;22044;48.298;10.008;2022-11-30T11:47:05;22.37;;;14.50;;
35961;SDS011;22044;48.298;10.008;2022-11-30T11:50:02;23.10;;;14.47;;
35961;SDS011;22044;48.298;10.008;2022-11-30T11:53:09;25.13;;;14.93;;
35961;SDS011;22044;48.298;10.008;2022-11-30T11:56:07;23.30;;;14.37;;
35961;SDS011;22044;48.298;10.008;2022-11-30T11:58:57;22.70;;;14.83;;
35961;SDS011;22044;48.298;10.008;2022-11-30T12:01:49;23.27;;;14.73;;
35961;SDS011;22044;48.298;10.008;2022-11-30T12:04:43;23.23;;;15.43;;
35961;SDS011;22044;48.298;10.008;2022-11-30T12:07:32;23.60;;;14.13;;
35961;SDS011;22044;48.298;10.008;2022-11-30T12:10:24;23.00;;;14.67;;
35961;SDS011;22044;48.298;10.008;2022-11-30T12:13:14;23.70;;;15.07;;
35961;SDS011;22044;48.298;10.008;2022-11-30T12:16:03;23.67;;;14.77;;
35961;SDS011;22044;48.298;10.008;2022-11-30T12:19:07;23.00;;;14.40;;
35961;SDS011;22044;48.298;10.008;2022-11-30T12:22:01;24.07;;;14.77;;
35961;SDS011;22044;48.298;10.008;2022-11-30T12:25:05;26.47;;;15.03;;
35961;SDS011;22044;48.298;10.008;2022-11-30T12:28:14;23.43;;;14.70;;
35961;SDS011;22044;48.298;10.008;2022-11-30T12:31:07;27.60;;;15.23;;
35961;SDS011;22044;48.298;10.008;2022-11-30T12:34:00;21.97;;;15.00;;
35961;SDS011;22044;48.298;10.008;2022-11-30T12:36:56;22.10;;;14.00;;
35961;SDS011;22044;48.298;10.008;2022-11-30T12:39:49;22.00;;;13.77;;
35961;SDS011;22044;48.298;10.008;2022-11-30T12:42:42;20.43;;;13.47;;
35961;SDS011;22044;48.298;10.008;2022-11-30T12:45:36;20.83;;;13.13;;
35961;SDS011;22044;48.298;10.008;2022-11-30T12:48:26;20.20;;;13.53;;
35961;SDS011;22044;48.298;10.008;2022-11-30T12:51:25;21.40;;;13.53;;
35961;SDS011;22044;48.298;10.008;2022-11-30T12:54:19;19.07;;;11.93;;
35961;SDS011;22044;48.298;10.008;2022-11-30T12:57:12;19.10;;;11.70;;
35961;SDS011;22044;48.298;10.008;2022-11-30T13:00:04;16.67;;;11.90;;
35961;SDS011;22044;48.298;10.008;2022-11-30T13:02:59;18.37;;;12.17;;
35961;SDS011;22044;48.298;10.008;2022-11-30T13:06:08;18.60;;;12.83;;
35961;SDS011;22044;48.298;10.008;2022-11-30T13:09:01;17.10;;;11.97;;
35961;SDS011;22044;48.298;10.008;2022-11-30T13:11:50;17.50;;;12.60;;
35961;SDS011;22044;48.298;10.008;2022-11-30T13:14:40;17.43;;;11.60;;
35961;SDS011;22044;48.298;10.008;2022-11-30T13:17:26;17.77;;;11.40;;
35961;SDS011;22044;48.298;10.008;2022-11-30T13:20:15;18.03;;;11.63;;
35961;SDS011;22044;48.298;10.008;2022-11-30T13:23:07;18.90;;;11.70;;
35961;SDS011;22044;48.298;10.008;2022-11-30T13:26:00;17.40;;;11.57;;
35961;SDS011;22044;48.298;10.008;2022-11-30T13:28:54;18.80;;;11.30;;
35961;SDS011;22044;48.298;10.008;2022-11-30T13:31:49;19.47;;;12.23;;
35961;SDS011;22044;48.298;10.008;2022-11-30T13:34:38;19.17;;;10.90;;
35961;SDS011;22044;48.298;10.008;2022-11-30T13:37:24;19.77;;;11.53;;
35961;SDS011;22044;48.298;10.008;2022-11-30T13:40:18;16.00;;;11.13;;
35961;SDS011;22044;48.298;10.008;2022-11-30T13:43:12;17.07;;;11.93;;
35961;SDS011;22044;48.298;10.008;2022-11-30T13:46:12;19.03;;;11.73;;
35961;SDS011;22044;48.298;10.008;2022-11-30T13:49:09;19.70;;;12.10;;
35961;SDS011;22044;48.298;10.008;2022-11-30T13:52:02;20.60;;;12.53;;
35961;SDS011;22044;48.298;10.008;2022-11-30T13:54:49;19.10;;;12.10;;
35961;SDS011;22044;48.298;10.008;2022-11-30T13:58:02;18.40;;;11.47;;
35961;SDS011;22044;48.298;10.008;2022-11-30T14:01:02;20.30;;;12.17;;
35961;SDS011;22044;48.298;10.008;2022-11-30T14:07:35;22.20;;;13.80;;
35961;SDS011;22044;48.298;10.008;2022-11-30T14:10:25;17.60;;;11.37;;
35961;SDS011;22044;48.298;10.008;2022-11-30T14:13:31;18.23;;;11.37;;
35961;SDS011;22044;48.298;10.008;2022-11-30T14:16:21;19.57;;;12.40;;
35961;SDS011;22044;48.298;10.008;2022-11-30T14:19:10;19.70;;;13.43;;
35961;SDS011;22044;48.298;10.008;2022-11-30T14:21:55;17.60;;;11.60;;
35961;SDS011;22044;48.298;10.008;2022-11-30T14:24:43;20.33;;;12.10;;
35961;SDS011;22044;48.298;10.008;2022-11-30T14:27:30;17.23;;;11.33;;
35961;SDS011;22044;48.298;10.008;2022-11-30T14:30:21;21.30;;;12.17;;
35961;SDS011;22044;48.298;10.008;2022-11-30T14:33:10;18.17;;;11.07;;
35961;SDS011;22044;48.298;10.008;2022-11-30T14:35:59;18.60;;;12.17;;
35961;SDS011;22044;48.298;10.008;2022-11-30T14:38:47;17.10;;;11.43;;
35961;SDS011;22044;48.298;10.008;2022-11-30T14:41:32;17.00;;;11.57;;
35961;SDS011;22044;48.298;10.008;2022-11-30T14:44:18;18.37;;;12.07;;
35961;SDS011;22044;48.298;10.008;2022-11-30T14:47:15;18.33;;;12.00;;
35961;SDS011;22044;48.298;10.008;2022-11-30T14:50:06;18.87;;;11.87;;
35961;SDS011;22044;48.298;10.008;2022-11-30T14:53:06;21.33;;;12.40;;
35961;SDS011;22044;48.298;10.008;2022-11-30T14:56:03;21.70;;;11.83;;
35961;SDS011;22044;48.298;10.008;2022-11-30T14:58:57;17.77;;;12.17;;
35961;SDS011;22044;48.298;10.008;2022-11-30T15:01:47;18.90;;;11.87;;
35961;SDS011;22044;48.298;10.008;2022-11-30T15:04:40;19.53;;;11.80;;
35961;SDS011;22044;48.298;10.008;2022-11-30T15:07:26;16.97;;;11.03;;
35961;SDS011;22044;48.298;10.008;2022-11-30T15:10:13;18.63;;;12.30;;
35961;SDS011;22044;48.298;10.008;2022-11-30T15:13:01;19.30;;;11.20;;
35961;SDS011;22044;48.298;10.008;2022-11-30T15:15:51;17.83;;;11.70;;
35961;SDS011;22044;48.298;10.008;2022-11-30T15:18:37;22.63;;;13.07;;
35961;SDS011;22044;48.298;10.008;2022-11-30T15:21:26;20.63;;;12.77;;
35961;SDS011;22044;48.298;10.008;2022-11-30T15:24:13;22.07;;;12.00;;
35961;SDS011;22044;48.298;10.008;2022-11-30T15:27:00;20.23;;;12.20;;
35961;SDS011;22044;48.298;10.008;2022-11-30T15:29:49;23.40;;;14.52;;
35961;SDS011;22044;48.298;10.008;2022-11-30T15:32:41;20.83;;;13.63;;
35961;SDS011;22044;48.298;10.008;2022-11-30T15:35:29;16.43;;;11.73;;
35961;SDS011;22044;48.298;10.008;2022-11-30T15:38:18;20.63;;;13.07;;
35961;SDS011;22044;48.298;10.008;2022-11-30T15:41:05;18.93;;;12.40;;
35961;SDS011;22044;48.298;10.008;2022-11-30T15:43:59;18.27;;;12.30;;
35961;SDS011;22044;48.298;10.008;2022-11-30T15:46:52;19.00;;;12.20;;
35961;SDS011;22044;48.298;10.008;2022-11-30T15:49:40;19.53;;;12.33;;
35961;SDS011;22044;48.298;10.008;2022-11-30T15:52:35;19.53;;;12.33;;
35961;SDS011;22044;48.298;10.008;2022-11-30T15:55:42;22.53;;;12.03;;
35961;SDS011;22044;48.298;10.008;2022-11-30T15:58:30;16.97;;;10.93;;
35961;SDS011;22044;48.298;10.008;2022-11-30T16:01:18;16.07;;;10.83;;
35961;SDS011;22044;48.298;10.008;2022-11-30T16:04:07;19.70;;;12.40;;
35961;SDS011;22044;48.298;10.008;2022-11-30T16:06:53;23.23;;;12.87;;
35961;SDS011;22044;48.298;10.008;2022-11-30T16:09:38;18.93;;;12.57;;
35961;SDS011;22044;48.298;10.008;2022-11-30T16:12:25;17.93;;;12.23;;
35961;SDS011;22044;48.298;10.008;2022-11-30T16:15:15;19.30;;;12.53;;
35961;SDS011;22044;48.298;10.008;2022-11-30T16:18:09;23.47;;;12.50;;
35961;SDS011;22044;48.298;10.008;2022-11-30T16:20:59;21.50;;;12.60;;
35961;SDS011;22044;48.298;10.008;2022-11-30T16:23:46;24.23;;;12.63;;
35961;SDS011;22044;48.298;10.008;2022-11-30T16:26:32;18.23;;;11.50;;